CheckWX is a tool to help pilots better visualize weather data.  It is not intended as a substitute for an official pre-flight weather briefing.

19:25:18 UTC

GLRB TAF
Roberts International Airport
Monrovia, Liberia
TAF GLRB 061100Z 0612/0712 23010KT 9999 BKN018 TEMPO 0612/0616 22009KT BKN017 FEW025CB BECMG 0617/0619 22005KT 9000 BKN015 FEW023CB

Jul-6@
12:00 UTC

Jul-6 @ 12:00 UTC

Jul-6@
17:00 UTC

Jul-6 @ 17:00 UTC

TAF GLRB 061100Z 0612/0712 23010KT 9999 BKN018

Expired

Wind
  • 230° at 10 KTS
Cloud Levels
  • Broken at 1,800' AGL

Jul-6@
12:00 UTC

Jul-6 @ 12:00 UTC

Jul-6@
16:00 UTC

Jul-6 @ 16:00 UTC

TEMPO 0612/0616 22009KT BKN017 FEW025CB

Expired

Wind
  • 220° at 9 KTS
Cloud Levels
  • Broken at 1,700' AGL
  • Few at 2,500' AGL

Jul-6@
17:00 UTC

Jul-6 @ 17:00 UTC

Jul-7@
12:00 UTC

Jul-7 @ 12:00 UTC

BECMG 0617/0619 22005KT 9000 BKN015 FEW023CB

Becoming

Becoming Conditions expected by Mon, Jul 6, 2020 @ 19:00 UTC

Wind
  • 220° at 5 KTS
Cloud Levels
  • Broken at 1,500' AGL
  • Few at 2,300' AGL